sensor_id;sensor_type;location;lat;lon;timestamp;P1;durP1;ratioP1;P2;durP2;ratioP2
1276;SDS011;631;51.024;13.826;2023-02-02T19:09:13;31.08;;;27.80;;
1276;SDS011;631;51.024;13.826;2023-02-02T19:11:45;37.60;;;33.50;;
1276;SDS011;631;51.024;13.826;2023-02-02T19:14:33;31.95;;;28.77;;
1276;SDS011;631;51.024;13.826;2023-02-02T19:19:38;30.92;;;27.80;;
1276;SDS011;631;51.024;13.826;2023-02-02T19:22:12;31.30;;;28.30;;
1276;SDS011;631;51.024;13.826;2023-02-02T19:24:44;24.55;;;22.25;;
1276;SDS011;631;51.024;13.826;2023-02-02T19:27:16;27.60;;;24.20;;
1276;SDS011;631;51.024;13.826;2023-02-02T19:29:48;23.20;;;21.30;;
1276;SDS011;631;51.024;13.826;2023-02-02T19:32:17;29.55;;;26.45;;
1276;SDS011;631;51.024;13.826;2023-02-02T19:34:47;30.50;;;27.58;;
1276;SDS011;631;51.024;13.826;2023-02-02T19:39:49;28.23;;;25.73;;
1276;SDS011;631;51.024;13.826;2023-02-02T19:43:25;23.90;;;22.00;;
1276;SDS011;631;51.024;13.826;2023-02-02T19:45:36;22.90;;;21.23;;
1276;SDS011;631;51.024;13.826;2023-02-02T19:48:16;30.58;;;27.98;;
1276;SDS011;631;51.024;13.826;2023-02-02T19:50:43;26.00;;;23.73;;
1276;SDS011;631;51.024;13.826;2023-02-02T19:53:21;22.73;;;20.83;;
1276;SDS011;631;51.024;13.826;2023-02-02T19:55:48;25.73;;;23.35;;
1276;SDS011;631;51.024;13.826;2023-02-02T19:58:19;22.65;;;20.75;;
1276;SDS011;631;51.024;13.826;2023-02-02T20:00:51;26.15;;;23.65;;
1276;SDS011;631;51.024;13.826;2023-02-02T20:03:21;24.77;;;22.27;;
1276;SDS011;631;51.024;13.826;2023-02-02T20:05:50;25.95;;;23.40;;
1276;SDS011;631;51.024;13.826;2023-02-02T20:10:48;26.88;;;24.20;;
1276;SDS011;631;51.024;13.826;2023-02-02T20:13:19;28.20;;;25.30;;
1276;SDS011;631;51.024;13.826;2023-02-02T20:15:45;27.10;;;24.60;;
1276;SDS011;631;51.024;13.826;2023-02-02T20:18:15;25.92;;;23.30;;
1276;SDS011;631;51.024;13.826;2023-02-02T20:20:44;30.27;;;27.15;;
1276;SDS011;631;51.024;13.826;2023-02-02T20:23:19;33.15;;;28.10;;
1276;SDS011;631;51.024;13.826;2023-02-02T20:26:01;29.83;;;26.00;;
1276;SDS011;631;51.024;13.826;2023-02-02T20:28:39;32.42;;;27.70;;
1276;SDS011;631;51.024;13.826;2023-02-02T20:31:08;30.60;;;27.40;;
1276;SDS011;631;51.024;13.826;2023-02-02T20:33:38;40.13;;;32.40;;
1276;SDS011;631;51.024;13.826;2023-02-02T20:38:49;26.75;;;24.15;;
1276;SDS011;631;51.024;13.826;2023-02-02T20:41:14;26.80;;;24.43;;
1276;SDS011;631;51.024;13.826;2023-02-02T20:43:42;26.73;;;24.42;;
1276;SDS011;631;51.024;13.826;2023-02-02T20:46:10;25.77;;;23.58;;
1276;SDS011;631;51.024;13.826;2023-02-02T20:48:36;25.25;;;23.05;;
1276;SDS011;631;51.024;13.826;2023-02-02T20:51:02;23.67;;;21.37;;
1276;SDS011;631;51.024;13.826;2023-02-02T20:53:29;23.63;;;21.50;;
1276;SDS011;631;51.024;13.826;2023-02-02T20:55:54;22.70;;;20.40;;
1276;SDS011;631;51.024;13.826;2023-02-02T20:58:23;24.65;;;22.55;;
1276;SDS011;631;51.024;13.826;2023-02-02T21:00:49;23.23;;;20.97;;
1276;SDS011;631;51.024;13.826;2023-02-02T21:03:15;21.90;;;20.00;;
1276;SDS011;631;51.024;13.826;2023-02-02T21:05:41;20.73;;;19.20;;
1276;SDS011;631;51.024;13.826;2023-02-02T21:08:06;20.90;;;19.20;;
1276;SDS011;631;51.024;13.826;2023-02-02T21:10:32;20.33;;;18.73;;
1276;SDS011;631;51.024;13.826;2023-02-02T21:12:58;21.02;;;19.40;;
1276;SDS011;631;51.024;13.826;2023-02-02T21:15:24;20.30;;;18.30;;
1276;SDS011;631;51.024;13.826;2023-02-02T21:17:50;19.98;;;18.15;;
1276;SDS011;631;51.024;13.826;2023-02-02T21:20:16;20.50;;;18.50;;
1276;SDS011;631;51.024;13.826;2023-02-02T21:22:42;20.33;;;18.67;;
1276;SDS011;631;51.024;13.826;2023-02-02T21:25:07;20.10;;;18.70;;
1276;SDS011;631;51.024;13.826;2023-02-02T21:27:34;17.35;;;16.05;;
1276;SDS011;631;51.024;13.826;2023-02-02T21:30:00;18.60;;;17.03;;
1276;SDS011;631;51.024;13.826;2023-02-02T21:32:25;19.80;;;17.93;;
1276;SDS011;631;51.024;13.826;2023-02-02T21:34:51;19.20;;;17.50;;
1276;SDS011;631;51.024;13.826;2023-02-02T21:37:16;19.50;;;17.60;;
1276;SDS011;631;51.024;13.826;2023-02-02T21:39:42;19.07;;;17.47;;
1276;SDS011;631;51.024;13.826;2023-02-02T21:42:14;18.83;;;17.40;;
1276;SDS011;631;51.024;13.826;2023-02-02T21:44:46;19.70;;;18.15;;
1276;SDS011;631;51.024;13.826;2023-02-02T21:47:22;19.02;;;17.52;;
1276;SDS011;631;51.024;13.826;2023-02-02T21:49:56;19.83;;;17.90;;
1276;SDS011;631;51.024;13.826;2023-02-02T21:52:28;20.23;;;18.40;;
1276;SDS011;631;51.024;13.826;2023-02-02T21:54:57;19.55;;;17.85;;
1276;SDS011;631;51.024;13.826;2023-02-02T21:57:25;19.70;;;18.13;;
1276;SDS011;631;51.024;13.826;2023-02-02T22:00:02;18.75;;;17.20;;
1276;SDS011;631;51.024;13.826;2023-02-02T22:02:46;17.48;;;16.27;;
1276;SDS011;631;51.024;13.826;2023-02-02T22:05:25;18.52;;;17.13;;
1276;SDS011;631;51.024;13.826;2023-02-02T22:07:57;17.70;;;16.40;;
1276;SDS011;631;51.024;13.826;2023-02-02T22:10:28;17.95;;;16.55;;
1276;SDS011;631;51.024;13.826;2023-02-02T22:13:04;18.75;;;17.35;;
1276;SDS011;631;51.024;13.826;2023-02-02T22:15:46;20.88;;;19.15;;
1276;SDS011;631;51.024;13.826;2023-02-02T22:18:24;21.65;;;19.65;;
1276;SDS011;631;51.024;13.826;2023-02-02T22:20:51;20.70;;;19.00;;
1276;SDS011;631;51.024;13.826;2023-02-02T22:23:21;20.33;;;18.55;;
1276;SDS011;631;51.024;13.826;2023-02-02T22:25:49;20.35;;;18.52;;
1276;SDS011;631;51.024;13.826;2023-02-02T22:30:53;19.35;;;17.75;;
1276;SDS011;631;51.024;13.826;2023-02-02T22:33:20;19.40;;;17.80;;
1276;SDS011;631;51.024;13.826;2023-02-02T22:35:46;23.05;;;20.92;;
1276;SDS011;631;51.024;13.826;2023-02-02T22:38:16;22.15;;;20.23;;
1276;SDS011;631;51.024;13.826;2023-02-02T22:40:44;21.83;;;19.92;;
1276;SDS011;631;51.024;13.826;2023-02-02T22:43:10;21.67;;;19.65;;
1276;SDS011;631;51.024;13.826;2023-02-02T22:45:37;20.15;;;18.42;;
1276;SDS011;631;51.024;13.826;2023-02-02T22:48:03;20.05;;;17.10;;
1276;SDS011;631;51.024;13.826;2023-02-02T22:50:30;21.60;;;19.33;;
1276;SDS011;631;51.024;13.826;2023-02-02T22:52:55;20.30;;;18.40;;
1276;SDS011;631;51.024;13.826;2023-02-02T22:55:22;21.40;;;19.40;;
1276;SDS011;631;51.024;13.826;2023-02-02T22:57:48;20.63;;;19.03;;
1276;SDS011;631;51.024;13.826;2023-02-02T23:00:17;22.20;;;20.27;;
1276;SDS011;631;51.024;13.826;2023-02-02T23:02:45;22.10;;;20.05;;
1276;SDS011;631;51.024;13.826;2023-02-02T23:05:12;20.97;;;19.23;;
1276;SDS011;631;51.024;13.826;2023-02-02T23:07:39;21.65;;;19.85;;
1276;SDS011;631;51.024;13.826;2023-02-02T23:10:08;21.50;;;19.80;;
1276;SDS011;631;51.024;13.826;2023-02-02T23:12:35;21.65;;;19.42;;
1276;SDS011;631;51.024;13.826;2023-02-02T23:15:00;21.80;;;19.60;;
1276;SDS011;631;51.024;13.826;2023-02-02T23:17:26;20.90;;;18.93;;
1276;SDS011;631;51.024;13.826;2023-02-02T23:19:52;20.77;;;18.87;;
1276;SDS011;631;51.024;13.826;2023-02-02T23:22:17;21.90;;;19.80;;
1276;SDS011;631;51.024;13.826;2023-02-02T23:24:43;20.10;;;18.00;;
1276;SDS011;631;51.024;13.826;2023-02-02T23:27:09;19.37;;;17.60;;
1276;SDS011;631;51.024;13.826;2023-02-02T23:29:36;19.85;;;17.80;;
1276;SDS011;631;51.024;13.826;2023-02-02T23:32:02;20.23;;;18.30;;
1276;SDS011;631;51.024;13.826;2023-02-02T23:34:28;19.63;;;17.83;;
1276;SDS011;631;51.024;13.826;2023-02-02T23:36:54;19.03;;;17.43;;
1276;SDS011;631;51.024;13.826;2023-02-02T23:39:19;19.47;;;17.57;;
1276;SDS011;631;51.024;13.826;2023-02-02T23:41:45;19.50;;;18.00;;
1276;SDS011;631;51.024;13.826;2023-02-02T23:44:11;20.30;;;18.50;;
1276;SDS011;631;51.024;13.826;2023-02-02T23:46:36;21.40;;;19.37;;
1276;SDS011;631;51.024;13.826;2023-02-02T23:49:03;20.88;;;19.00;;
1276;SDS011;631;51.024;13.826;2023-02-02T23:51:29;20.27;;;18.55;;
1276;SDS011;631;51.024;13.826;2023-02-02T23:53:55;19.65;;;17.92;;
1276;SDS011;631;51.024;13.826;2023-02-02T23:56:22;19.65;;;17.85;;
1276;SDS011;631;51.024;13.826;2023-02-02T23:58:48;19.88;;;18.10;;
